sensor_id;sensor_type;location;lat;lon;timestamp;P1;durP1;ratioP1;P2;durP2;ratioP2
25481;SDS011;13395;50.752;4.268;2024-01-15T00:01:53;45.45;;;16.52;;
25481;SDS011;13395;50.752;4.268;2024-01-15T00:04:19;43.55;;;17.80;;
25481;SDS011;13395;50.752;4.268;2024-01-15T00:06:44;46.85;;;18.00;;
25481;SDS011;13395;50.752;4.268;2024-01-15T00:09:10;40.47;;;15.63;;
25481;SDS011;13395;50.752;4.268;2024-01-15T00:11:36;40.97;;;14.23;;
25481;SDS011;13395;50.752;4.268;2024-01-15T00:14:01;32.80;;;14.38;;
25481;SDS011;13395;50.752;4.268;2024-01-15T00:16:28;37.35;;;14.93;;
25481;SDS011;13395;50.752;4.268;2024-01-15T00:18:53;43.20;;;15.40;;
25481;SDS011;13395;50.752;4.268;2024-01-15T00:21:19;37.88;;;14.45;;
25481;SDS011;13395;50.752;4.268;2024-01-15T00:23:45;27.13;;;13.30;;
25481;SDS011;13395;50.752;4.268;2024-01-15T00:26:11;27.80;;;12.52;;
25481;SDS011;13395;50.752;4.268;2024-01-15T00:28:37;35.17;;;12.13;;
25481;SDS011;13395;50.752;4.268;2024-01-15T00:31:03;35.50;;;12.55;;
25481;SDS011;13395;50.752;4.268;2024-01-15T00:33:32;27.92;;;12.02;;
25481;SDS011;13395;50.752;4.268;2024-01-15T00:35:57;32.63;;;12.43;;
25481;SDS011;13395;50.752;4.268;2024-01-15T00:38:23;31.42;;;13.60;;
25481;SDS011;13395;50.752;4.268;2024-01-15T00:40:49;31.17;;;12.45;;
25481;SDS011;13395;50.752;4.268;2024-01-15T00:43:14;28.42;;;12.85;;
25481;SDS011;13395;50.752;4.268;2024-01-15T00:45:43;30.70;;;12.90;;
25481;SDS011;13395;50.752;4.268;2024-01-15T00:48:08;33.15;;;14.18;;
25481;SDS011;13395;50.752;4.268;2024-01-15T00:50:34;38.38;;;14.38;;
25481;SDS011;13395;50.752;4.268;2024-01-15T00:52:59;33.10;;;14.35;;
25481;SDS011;13395;50.752;4.268;2024-01-15T00:55:25;38.00;;;14.95;;
25481;SDS011;13395;50.752;4.268;2024-01-15T00:57:52;32.45;;;14.38;;
25481;SDS011;13395;50.752;4.268;2024-01-15T01:00:17;30.30;;;14.20;;
25481;SDS011;13395;50.752;4.268;2024-01-15T01:02:43;33.78;;;15.20;;
25481;SDS011;13395;50.752;4.268;2024-01-15T01:05:09;34.40;;;16.02;;
25481;SDS011;13395;50.752;4.268;2024-01-15T01:07:34;38.00;;;15.40;;
25481;SDS011;13395;50.752;4.268;2024-01-15T01:10:00;35.20;;;15.50;;
25481;SDS011;13395;50.752;4.268;2024-01-15T01:12:26;37.38;;;16.35;;
25481;SDS011;13395;50.752;4.268;2024-01-15T01:14:52;38.92;;;16.65;;
25481;SDS011;13395;50.752;4.268;2024-01-15T01:17:18;36.20;;;15.60;;
25481;SDS011;13395;50.752;4.268;2024-01-15T01:19:43;44.42;;;16.42;;
25481;SDS011;13395;50.752;4.268;2024-01-15T01:22:09;40.53;;;15.05;;
25481;SDS011;13395;50.752;4.268;2024-01-15T01:24:34;40.97;;;14.68;;
25481;SDS011;13395;50.752;4.268;2024-01-15T01:27:00;35.05;;;14.30;;
25481;SDS011;13395;50.752;4.268;2024-01-15T01:29:26;26.88;;;12.07;;
25481;SDS011;13395;50.752;4.268;2024-01-15T01:31:51;27.85;;;12.93;;
25481;SDS011;13395;50.752;4.268;2024-01-15T01:34:17;23.85;;;11.55;;
25481;SDS011;13395;50.752;4.268;2024-01-15T01:36:43;26.52;;;11.88;;
25481;SDS011;13395;50.752;4.268;2024-01-15T01:39:09;24.15;;;11.30;;
25481;SDS011;13395;50.752;4.268;2024-01-15T01:41:35;25.70;;;11.07;;
25481;SDS011;13395;50.752;4.268;2024-01-15T01:44:01;24.77;;;12.63;;
25481;SDS011;13395;50.752;4.268;2024-01-15T01:46:27;29.45;;;11.90;;
25481;SDS011;13395;50.752;4.268;2024-01-15T01:48:53;22.42;;;9.82;;
25481;SDS011;13395;50.752;4.268;2024-01-15T01:51:21;23.98;;;10.88;;
25481;SDS011;13395;50.752;4.268;2024-01-15T01:53:48;23.90;;;10.70;;
25481;SDS011;13395;50.752;4.268;2024-01-15T01:56:14;24.98;;;11.50;;
25481;SDS011;13395;50.752;4.268;2024-01-15T01:58:40;22.63;;;11.10;;
25481;SDS011;13395;50.752;4.268;2024-01-15T02:01:06;21.67;;;12.30;;
25481;SDS011;13395;50.752;4.268;2024-01-15T02:03:32;28.05;;;12.80;;
25481;SDS011;13395;50.752;4.268;2024-01-15T02:05:59;32.80;;;12.10;;
25481;SDS011;13395;50.752;4.268;2024-01-15T02:08:25;27.48;;;12.55;;
25481;SDS011;13395;50.752;4.268;2024-01-15T02:10:51;29.73;;;12.32;;
25481;SDS011;13395;50.752;4.268;2024-01-15T02:13:17;29.58;;;13.75;;
25481;SDS011;13395;50.752;4.268;2024-01-15T02:15:43;25.88;;;12.70;;
25481;SDS011;13395;50.752;4.268;2024-01-15T02:18:09;28.55;;;12.00;;
25481;SDS011;13395;50.752;4.268;2024-01-15T02:20:35;26.17;;;12.73;;
25481;SDS011;13395;50.752;4.268;2024-01-15T02:23:11;26.95;;;12.55;;
25481;SDS011;13395;50.752;4.268;2024-01-15T02:25:41;25.98;;;13.07;;
25481;SDS011;13395;50.752;4.268;2024-01-15T02:28:09;33.20;;;12.52;;
25481;SDS011;13395;50.752;4.268;2024-01-15T02:30:40;30.67;;;13.63;;
25481;SDS011;13395;50.752;4.268;2024-01-15T02:33:07;31.30;;;14.32;;
25481;SDS011;13395;50.752;4.268;2024-01-15T02:35:34;34.03;;;13.25;;
25481;SDS011;13395;50.752;4.268;2024-01-15T02:38:01;33.90;;;13.82;;
25481;SDS011;13395;50.752;4.268;2024-01-15T02:40:31;47.75;;;15.85;;
25481;SDS011;13395;50.752;4.268;2024-01-15T02:42:57;36.92;;;15.10;;
25481;SDS011;13395;50.752;4.268;2024-01-15T02:45:22;35.10;;;14.75;;
25481;SDS011;13395;50.752;4.268;2024-01-15T02:47:48;38.75;;;15.38;;
25481;SDS011;13395;50.752;4.268;2024-01-15T02:50:14;48.08;;;16.55;;
25481;SDS011;13395;50.752;4.268;2024-01-15T02:52:43;38.47;;;15.82;;
25481;SDS011;13395;50.752;4.268;2024-01-15T02:55:09;36.22;;;15.52;;
25481;SDS011;13395;50.752;4.268;2024-01-15T02:57:35;46.60;;;18.25;;
25481;SDS011;13395;50.752;4.268;2024-01-15T03:00:00;36.80;;;16.70;;
25481;SDS011;13395;50.752;4.268;2024-01-15T03:02:26;43.03;;;17.33;;
25481;SDS011;13395;50.752;4.268;2024-01-15T03:04:52;48.28;;;17.95;;
25481;SDS011;13395;50.752;4.268;2024-01-15T03:07:17;39.10;;;16.40;;
25481;SDS011;13395;50.752;4.268;2024-01-15T03:09:43;43.80;;;17.83;;
25481;SDS011;13395;50.752;4.268;2024-01-15T03:12:09;43.03;;;17.40;;
25481;SDS011;13395;50.752;4.268;2024-01-15T03:14:36;48.13;;;18.42;;
25481;SDS011;13395;50.752;4.268;2024-01-15T03:17:01;44.60;;;17.90;;
25481;SDS011;13395;50.752;4.268;2024-01-15T03:19:27;53.30;;;17.08;;
25481;SDS011;13395;50.752;4.268;2024-01-15T03:21:53;51.80;;;16.92;;
25481;SDS011;13395;50.752;4.268;2024-01-15T03:24:19;43.40;;;16.95;;
25481;SDS011;13395;50.752;4.268;2024-01-15T03:26:45;45.78;;;19.20;;
25481;SDS011;13395;50.752;4.268;2024-01-15T03:29:11;41.63;;;18.42;;
25481;SDS011;13395;50.752;4.268;2024-01-15T03:31:36;42.90;;;18.40;;
25481;SDS011;13395;50.752;4.268;2024-01-15T03:34:02;47.33;;;19.77;;
25481;SDS011;13395;50.752;4.268;2024-01-15T03:36:28;49.47;;;19.73;;
25481;SDS011;13395;50.752;4.268;2024-01-15T03:38:54;47.30;;;20.70;;
25481;SDS011;13395;50.752;4.268;2024-01-15T03:41:19;42.65;;;17.60;;
25481;SDS011;13395;50.752;4.268;2024-01-15T03:43:45;47.78;;;18.30;;
25481;SDS011;13395;50.752;4.268;2024-01-15T03:46:11;56.60;;;20.73;;
25481;SDS011;13395;50.752;4.268;2024-01-15T03:48:37;55.92;;;20.98;;
25481;SDS011;13395;50.752;4.268;2024-01-15T03:51:03;55.42;;;20.95;;
25481;SDS011;13395;50.752;4.268;2024-01-15T03:53:29;60.78;;;21.30;;
25481;SDS011;13395;50.752;4.268;2024-01-15T03:55:54;48.92;;;19.88;;
25481;SDS011;13395;50.752;4.268;2024-01-15T03:58:20;45.95;;;20.17;;
25481;SDS011;13395;50.752;4.268;2024-01-15T04:00:46;47.42;;;20.83;;
25481;SDS011;13395;50.752;4.268;2024-01-15T04:03:11;51.50;;;19.67;;
25481;SDS011;13395;50.752;4.268;2024-01-15T04:05:37;51.75;;;20.55;;
25481;SDS011;13395;50.752;4.268;2024-01-15T04:08:03;49.17;;;20.08;;
25481;SDS011;13395;50.752;4.268;2024-01-15T04:10:29;52.00;;;20.17;;
25481;SDS011;13395;50.752;4.268;2024-01-15T04:12:55;50.65;;;20.20;;
25481;SDS011;13395;50.752;4.268;2024-01-15T04:15:21;39.17;;;18.13;;
25481;SDS011;13395;50.752;4.268;2024-01-15T04:17:46;46.92;;;18.70;;
25481;SDS011;13395;50.752;4.268;2024-01-15T04:20:12;43.55;;;17.65;;
25481;SDS011;13395;50.752;4.268;2024-01-15T04:22:37;45.47;;;18.05;;
25481;SDS011;13395;50.752;4.268;2024-01-15T04:25:03;45.40;;;18.00;;
25481;SDS011;13395;50.752;4.268;2024-01-15T04:27:30;35.63;;;16.77;;
25481;SDS011;13395;50.752;4.268;2024-01-15T04:29:55;37.42;;;16.05;;
25481;SDS011;13395;50.752;4.268;2024-01-15T04:32:21;38.28;;;16.35;;
25481;SDS011;13395;50.752;4.268;2024-01-15T04:34:46;32.42;;;13.88;;
25481;SDS011;13395;50.752;4.268;2024-01-15T04:37:13;27.92;;;13.77;;
25481;SDS011;13395;50.752;4.268;2024-01-15T04:39:39;27.05;;;11.85;;
25481;SDS011;13395;50.752;4.268;2024-01-15T04:42:04;29.73;;;12.15;;
25481;SDS011;13395;50.752;4.268;2024-01-15T04:44:30;22.77;;;10.88;;
25481;SDS011;13395;50.752;4.268;2024-01-15T04:46:56;23.58;;;11.57;;
25481;SDS011;13395;50.752;4.268;2024-01-15T04:49:21;21.92;;;11.25;;
25481;SDS011;13395;50.752;4.268;2024-01-15T04:51:47;30.23;;;11.60;;
25481;SDS011;13395;50.752;4.268;2024-01-15T04:54:12;27.35;;;11.07;;
25481;SDS011;13395;50.752;4.268;2024-01-15T04:56:42;24.75;;;11.32;;
25481;SDS011;13395;50.752;4.268;2024-01-15T04:59:08;21.23;;;10.48;;
25481;SDS011;13395;50.752;4.268;2024-01-15T05:01:34;29.65;;;12.23;;
25481;SDS011;13395;50.752;4.268;2024-01-15T05:04:00;19.77;;;10.75;;
25481;SDS011;13395;50.752;4.268;2024-01-15T05:06:25;24.83;;;11.30;;
25481;SDS011;13395;50.752;4.268;2024-01-15T05:08:51;23.35;;;13.25;;
25481;SDS011;13395;50.752;4.268;2024-01-15T05:11:17;29.95;;;14.30;;
25481;SDS011;13395;50.752;4.268;2024-01-15T05:13:43;32.22;;;14.65;;
25481;SDS011;13395;50.752;4.268;2024-01-15T05:16:08;29.55;;;14.75;;
25481;SDS011;13395;50.752;4.268;2024-01-15T05:18:34;34.33;;;15.73;;
25481;SDS011;13395;50.752;4.268;2024-01-15T05:20:59;36.05;;;16.38;;
25481;SDS011;13395;50.752;4.268;2024-01-15T05:23:25;41.10;;;16.42;;
25481;SDS011;13395;50.752;4.268;2024-01-15T05:25:51;42.72;;;18.10;;
25481;SDS011;13395;50.752;4.268;2024-01-15T05:28:16;42.30;;;17.33;;
25481;SDS011;13395;50.752;4.268;2024-01-15T05:30:42;38.45;;;17.55;;
25481;SDS011;13395;50.752;4.268;2024-01-15T05:33:07;38.13;;;16.80;;
25481;SDS011;13395;50.752;4.268;2024-01-15T05:35:34;42.95;;;18.63;;
25481;SDS011;13395;50.752;4.268;2024-01-15T05:37:59;33.78;;;17.73;;
25481;SDS011;13395;50.752;4.268;2024-01-15T05:40:25;41.75;;;18.17;;
25481;SDS011;13395;50.752;4.268;2024-01-15T05:42:51;37.13;;;16.83;;
25481;SDS011;13395;50.752;4.268;2024-01-15T05:45:16;30.73;;;16.83;;
25481;SDS011;13395;50.752;4.268;2024-01-15T05:47:42;30.38;;;17.13;;
25481;SDS011;13395;50.752;4.268;2024-01-15T05:50:09;41.72;;;17.85;;
25481;SDS011;13395;50.752;4.268;2024-01-15T05:52:35;35.10;;;17.58;;
25481;SDS011;13395;50.752;4.268;2024-01-15T05:55:01;37.67;;;17.15;;
25481;SDS011;13395;50.752;4.268;2024-01-15T05:57:27;34.58;;;17.48;;
25481;SDS011;13395;50.752;4.268;2024-01-15T05:59:53;37.58;;;17.73;;
25481;SDS011;13395;50.752;4.268;2024-01-15T06:02:19;34.63;;;15.95;;
25481;SDS011;13395;50.752;4.268;2024-01-15T06:04:45;32.90;;;17.02;;
25481;SDS011;13395;50.752;4.268;2024-01-15T06:07:10;31.92;;;16.08;;
25481;SDS011;13395;50.752;4.268;2024-01-15T06:09:36;28.40;;;15.80;;
25481;SDS011;13395;50.752;4.268;2024-01-15T06:12:03;28.50;;;15.10;;
25481;SDS011;13395;50.752;4.268;2024-01-15T06:14:29;27.50;;;14.45;;
25481;SDS011;13395;50.752;4.268;2024-01-15T06:16:55;25.13;;;14.63;;
25481;SDS011;13395;50.752;4.268;2024-01-15T06:19:20;29.90;;;15.82;;
25481;SDS011;13395;50.752;4.268;2024-01-15T06:21:46;24.17;;;10.70;;
25481;SDS011;13395;50.752;4.268;2024-01-15T06:24:11;16.70;;;9.65;;
25481;SDS011;13395;50.752;4.268;2024-01-15T06:26:38;22.30;;;12.52;;
25481;SDS011;13395;50.752;4.268;2024-01-15T06:29:04;32.13;;;16.98;;
25481;SDS011;13395;50.752;4.268;2024-01-15T06:31:29;41.17;;;19.65;;
25481;SDS011;13395;50.752;4.268;2024-01-15T06:33:55;37.13;;;18.95;;
25481;SDS011;13395;50.752;4.268;2024-01-15T06:36:21;29.63;;;16.92;;
25481;SDS011;13395;50.752;4.268;2024-01-15T06:38:46;29.67;;;16.83;;
25481;SDS011;13395;50.752;4.268;2024-01-15T06:41:12;29.58;;;16.45;;
25481;SDS011;13395;50.752;4.268;2024-01-15T06:43:38;30.05;;;15.75;;
25481;SDS011;13395;50.752;4.268;2024-01-15T06:46:04;20.73;;;11.90;;
25481;SDS011;13395;50.752;4.268;2024-01-15T06:48:29;16.95;;;9.50;;
25481;SDS011;13395;50.752;4.268;2024-01-15T06:50:56;17.73;;;10.07;;
25481;SDS011;13395;50.752;4.268;2024-01-15T06:53:21;26.20;;;10.50;;
25481;SDS011;13395;50.752;4.268;2024-01-15T06:55:47;16.77;;;9.23;;
25481;SDS011;13395;50.752;4.268;2024-01-15T06:58:14;13.98;;;9.10;;
25481;SDS011;13395;50.752;4.268;2024-01-15T07:00:39;15.98;;;9.20;;
25481;SDS011;13395;50.752;4.268;2024-01-15T07:03:05;12.82;;;8.05;;
25481;SDS011;13395;50.752;4.268;2024-01-15T07:05:31;15.73;;;9.85;;
25481;SDS011;13395;50.752;4.268;2024-01-15T07:07:58;17.88;;;9.23;;
25481;SDS011;13395;50.752;4.268;2024-01-15T07:10:24;17.80;;;9.25;;
25481;SDS011;13395;50.752;4.268;2024-01-15T07:12:49;22.98;;;9.57;;
25481;SDS011;13395;50.752;4.268;2024-01-15T07:15:15;25.00;;;9.90;;
25481;SDS011;13395;50.752;4.268;2024-01-15T07:17:41;16.88;;;9.55;;
25481;SDS011;13395;50.752;4.268;2024-01-15T07:20:07;23.58;;;10.07;;
25481;SDS011;13395;50.752;4.268;2024-01-15T07:22:35;26.50;;;11.57;;
25481;SDS011;13395;50.752;4.268;2024-01-15T07:25:01;32.67;;;14.43;;
25481;SDS011;13395;50.752;4.268;2024-01-15T07:27:27;23.98;;;12.35;;
25481;SDS011;13395;50.752;4.268;2024-01-15T07:29:52;27.80;;;12.25;;
25481;SDS011;13395;50.752;4.268;2024-01-15T07:32:18;30.55;;;12.13;;
25481;SDS011;13395;50.752;4.268;2024-01-15T07:34:45;21.27;;;12.25;;
25481;SDS011;13395;50.752;4.268;2024-01-15T07:37:11;20.30;;;10.80;;
25481;SDS011;13395;50.752;4.268;2024-01-15T07:39:36;28.65;;;10.25;;
25481;SDS011;13395;50.752;4.268;2024-01-15T07:42:04;25.02;;;10.95;;
25481;SDS011;13395;50.752;4.268;2024-01-15T07:44:30;18.25;;;9.80;;
25481;SDS011;13395;50.752;4.268;2024-01-15T07:46:56;20.08;;;8.90;;
25481;SDS011;13395;50.752;4.268;2024-01-15T07:49:21;24.60;;;8.43;;
25481;SDS011;13395;50.752;4.268;2024-01-15T07:51:48;19.85;;;7.72;;
25481;SDS011;13395;50.752;4.268;2024-01-15T07:54:14;17.67;;;7.93;;
25481;SDS011;13395;50.752;4.268;2024-01-15T07:56:55;19.98;;;7.75;;
25481;SDS011;13395;50.752;4.268;2024-01-15T07:59:22;15.25;;;7.63;;
25481;SDS011;13395;50.752;4.268;2024-01-15T08:01:48;15.52;;;7.15;;
25481;SDS011;13395;50.752;4.268;2024-01-15T08:04:14;19.60;;;7.30;;
25481;SDS011;13395;50.752;4.268;2024-01-15T08:06:40;10.88;;;5.65;;
25481;SDS011;13395;50.752;4.268;2024-01-15T08:09:05;12.77;;;5.90;;
25481;SDS011;13395;50.752;4.268;2024-01-15T08:11:31;12.02;;;5.43;;
25481;SDS011;13395;50.752;4.268;2024-01-15T08:13:57;20.27;;;5.10;;
25481;SDS011;13395;50.752;4.268;2024-01-15T08:16:23;12.13;;;4.47;;
25481;SDS011;13395;50.752;4.268;2024-01-15T08:18:50;12.98;;;5.00;;
25481;SDS011;13395;50.752;4.268;2024-01-15T08:21:17;12.80;;;5.13;;
25481;SDS011;13395;50.752;4.268;2024-01-15T08:23:42;14.18;;;4.75;;
25481;SDS011;13395;50.752;4.268;2024-01-15T08:26:08;16.63;;;3.97;;
25481;SDS011;13395;50.752;4.268;2024-01-15T08:28:34;15.02;;;4.05;;
25481;SDS011;13395;50.752;4.268;2024-01-15T08:30:59;14.93;;;5.03;;
25481;SDS011;13395;50.752;4.268;2024-01-15T08:33:25;11.00;;;3.97;;
25481;SDS011;13395;50.752;4.268;2024-01-15T08:35:50;5.82;;;3.58;;
25481;SDS011;13395;50.752;4.268;2024-01-15T08:38:16;14.82;;;4.05;;
25481;SDS011;13395;50.752;4.268;2024-01-15T08:40:44;9.02;;;3.42;;
25481;SDS011;13395;50.752;4.268;2024-01-15T08:43:09;7.10;;;3.15;;
25481;SDS011;13395;50.752;4.268;2024-01-15T08:45:35;9.93;;;4.30;;
25481;SDS011;13395;50.752;4.268;2024-01-15T08:48:01;7.68;;;3.65;;
25481;SDS011;13395;50.752;4.268;2024-01-15T08:50:27;8.73;;;3.08;;
25481;SDS011;13395;50.752;4.268;2024-01-15T08:52:52;10.50;;;3.40;;
25481;SDS011;13395;50.752;4.268;2024-01-15T08:55:19;7.78;;;2.50;;
25481;SDS011;13395;50.752;4.268;2024-01-15T08:57:47;12.77;;;2.97;;
25481;SDS011;13395;50.752;4.268;2024-01-15T09:00:13;15.23;;;2.22;;
25481;SDS011;13395;50.752;4.268;2024-01-15T09:02:39;8.30;;;2.58;;
25481;SDS011;13395;50.752;4.268;2024-01-15T09:05:05;9.50;;;2.50;;
25481;SDS011;13395;50.752;4.268;2024-01-15T09:07:31;7.55;;;2.55;;
25481;SDS011;13395;50.752;4.268;2024-01-15T09:09:57;11.63;;;2.28;;
25481;SDS011;13395;50.752;4.268;2024-01-15T09:12:24;21.35;;;2.45;;
25481;SDS011;13395;50.752;4.268;2024-01-15T09:14:53;5.95;;;2.50;;
25481;SDS011;13395;50.752;4.268;2024-01-15T09:17:19;9.85;;;2.72;;
25481;SDS011;13395;50.752;4.268;2024-01-15T09:19:46;11.52;;;2.30;;
25481;SDS011;13395;50.752;4.268;2024-01-15T09:22:12;7.72;;;2.10;;
25481;SDS011;13395;50.752;4.268;2024-01-15T09:24:42;8.55;;;2.03;;
25481;SDS011;13395;50.752;4.268;2024-01-15T09:27:07;7.03;;;2.00;;
25481;SDS011;13395;50.752;4.268;2024-01-15T09:29:33;8.35;;;1.92;;
25481;SDS011;13395;50.752;4.268;2024-01-15T09:32:01;5.40;;;2.15;;
25481;SDS011;13395;50.752;4.268;2024-01-15T09:34:28;8.40;;;2.03;;
25481;SDS011;13395;50.752;4.268;2024-01-15T09:36:54;7.63;;;2.72;;
25481;SDS011;13395;50.752;4.268;2024-01-15T09:39:19;5.90;;;1.67;;
25481;SDS011;13395;50.752;4.268;2024-01-15T09:41:45;8.07;;;2.15;;
25481;SDS011;13395;50.752;4.268;2024-01-15T09:44:11;4.68;;;1.95;;
25481;SDS011;13395;50.752;4.268;2024-01-15T09:46:37;15.63;;;2.10;;
25481;SDS011;13395;50.752;4.268;2024-01-15T09:49:04;7.38;;;1.90;;
25481;SDS011;13395;50.752;4.268;2024-01-15T09:51:31;7.13;;;1.70;;
25481;SDS011;13395;50.752;4.268;2024-01-15T09:53:57;9.40;;;2.03;;
25481;SDS011;13395;50.752;4.268;2024-01-15T09:56:23;12.90;;;1.65;;
25481;SDS011;13395;50.752;4.268;2024-01-15T09:58:49;7.55;;;1.88;;
25481;SDS011;13395;50.752;4.268;2024-01-15T10:01:19;5.65;;;1.60;;
25481;SDS011;13395;50.752;4.268;2024-01-15T10:03:46;4.50;;;1.75;;
25481;SDS011;13395;50.752;4.268;2024-01-15T10:06:15;4.03;;;1.50;;
25481;SDS011;13395;50.752;4.268;2024-01-15T10:08:47;4.43;;;1.70;;
25481;SDS011;13395;50.752;4.268;2024-01-15T10:11:14;9.38;;;2.10;;
25481;SDS011;13395;50.752;4.268;2024-01-15T10:13:40;4.00;;;1.67;;
25481;SDS011;13395;50.752;4.268;2024-01-15T10:16:06;6.93;;;1.50;;
25481;SDS011;13395;50.752;4.268;2024-01-15T10:18:32;8.27;;;1.85;;
25481;SDS011;13395;50.752;4.268;2024-01-15T10:20:57;18.50;;;1.65;;
25481;SDS011;13395;50.752;4.268;2024-01-15T10:23:24;7.93;;;1.83;;
25481;SDS011;13395;50.752;4.268;2024-01-15T10:25:49;4.30;;;1.88;;
25481;SDS011;13395;50.752;4.268;2024-01-15T10:28:16;10.82;;;2.00;;
25481;SDS011;13395;50.752;4.268;2024-01-15T10:30:44;6.32;;;1.67;;
25481;SDS011;13395;50.752;4.268;2024-01-15T10:33:10;4.47;;;1.90;;
25481;SDS011;13395;50.752;4.268;2024-01-15T10:35:37;7.85;;;1.88;;
25481;SDS011;13395;50.752;4.268;2024-01-15T10:38:03;2.85;;;1.58;;
25481;SDS011;13395;50.752;4.268;2024-01-15T10:40:31;12.23;;;2.13;;
25481;SDS011;13395;50.752;4.268;2024-01-15T10:42:57;6.75;;;1.88;;
25481;SDS011;13395;50.752;4.268;2024-01-15T10:45:23;8.80;;;1.70;;
25481;SDS011;13395;50.752;4.268;2024-01-15T10:47:48;8.02;;;1.60;;
25481;SDS011;13395;50.752;4.268;2024-01-15T10:50:14;4.50;;;1.60;;
25481;SDS011;13395;50.752;4.268;2024-01-15T10:52:40;7.45;;;1.70;;
25481;SDS011;13395;50.752;4.268;2024-01-15T10:55:10;9.07;;;2.10;;
25481;SDS011;13395;50.752;4.268;2024-01-15T10:57:39;10.38;;;2.17;;
25481;SDS011;13395;50.752;4.268;2024-01-15T11:00:05;6.80;;;1.85;;
25481;SDS011;13395;50.752;4.268;2024-01-15T11:02:32;10.27;;;1.65;;
25481;SDS011;13395;50.752;4.268;2024-01-15T11:04:59;6.25;;;1.42;;
25481;SDS011;13395;50.752;4.268;2024-01-15T11:07:25;7.28;;;1.52;;
25481;SDS011;13395;50.752;4.268;2024-01-15T11:09:51;5.70;;;1.35;;
25481;SDS011;13395;50.752;4.268;2024-01-15T11:12:17;5.45;;;1.48;;
25481;SDS011;13395;50.752;4.268;2024-01-15T11:17:14;5.13;;;1.40;;
25481;SDS011;13395;50.752;4.268;2024-01-15T11:22:07;5.45;;;1.50;;
25481;SDS011;13395;50.752;4.268;2024-01-15T11:24:34;7.78;;;1.20;;
25481;SDS011;13395;50.752;4.268;2024-01-15T11:27:01;4.28;;;1.10;;
25481;SDS011;13395;50.752;4.268;2024-01-15T11:32:00;11.65;;;1.85;;
25481;SDS011;13395;50.752;4.268;2024-01-15T11:40:20;5.93;;;1.98;;
25481;SDS011;13395;50.752;4.268;2024-01-15T11:42:46;4.70;;;1.15;;
25481;SDS011;13395;50.752;4.268;2024-01-15T11:45:17;12.32;;;1.50;;
25481;SDS011;13395;50.752;4.268;2024-01-15T11:48:03;11.32;;;1.75;;
25481;SDS011;13395;50.752;4.268;2024-01-15T11:50:34;9.73;;;1.77;;
25481;SDS011;13395;50.752;4.268;2024-01-15T11:53:03;7.88;;;1.45;;
25481;SDS011;13395;50.752;4.268;2024-01-15T11:55:39;2.90;;;1.10;;
25481;SDS011;13395;50.752;4.268;2024-01-15T11:58:10;8.45;;;1.10;;
25481;SDS011;13395;50.752;4.268;2024-01-15T12:00:39;10.70;;;1.75;;
25481;SDS011;13395;50.752;4.268;2024-01-15T12:03:06;2.90;;;1.10;;
25481;SDS011;13395;50.752;4.268;2024-01-15T12:05:33;5.90;;;1.33;;
25481;SDS011;13395;50.752;4.268;2024-01-15T12:08:02;5.25;;;1.67;;
25481;SDS011;13395;50.752;4.268;2024-01-15T12:10:28;4.82;;;1.42;;
25481;SDS011;13395;50.752;4.268;2024-01-15T12:13:04;5.05;;;1.30;;
25481;SDS011;13395;50.752;4.268;2024-01-15T12:15:34;6.60;;;1.73;;
25481;SDS011;13395;50.752;4.268;2024-01-15T12:18:00;6.88;;;1.25;;
25481;SDS011;13395;50.752;4.268;2024-01-15T12:20:28;7.50;;;0.90;;
25481;SDS011;13395;50.752;4.268;2024-01-15T12:22:54;5.72;;;1.10;;
25481;SDS011;13395;50.752;4.268;2024-01-15T12:25:21;2.45;;;0.95;;
25481;SDS011;13395;50.752;4.268;2024-01-15T12:27:47;5.90;;;1.40;;
25481;SDS011;13395;50.752;4.268;2024-01-15T12:30:13;5.25;;;1.63;;
25481;SDS011;13395;50.752;4.268;2024-01-15T12:32:40;9.38;;;1.15;;
25481;SDS011;13395;50.752;4.268;2024-01-15T12:35:07;7.82;;;1.50;;
25481;SDS011;13395;50.752;4.268;2024-01-15T12:37:34;4.88;;;0.90;;
25481;SDS011;13395;50.752;4.268;2024-01-15T12:40:11;6.22;;;0.90;;
25481;SDS011;13395;50.752;4.268;2024-01-15T12:42:39;6.38;;;1.48;;
25481;SDS011;13395;50.752;4.268;2024-01-15T12:45:05;10.80;;;1.08;;
25481;SDS011;13395;50.752;4.268;2024-01-15T12:47:32;10.18;;;2.45;;
25481;SDS011;13395;50.752;4.268;2024-01-15T12:49:58;6.97;;;1.20;;
25481;SDS011;13395;50.752;4.268;2024-01-15T12:52:27;4.68;;;1.15;;
25481;SDS011;13395;50.752;4.268;2024-01-15T12:54:53;7.93;;;1.30;;
25481;SDS011;13395;50.752;4.268;2024-01-15T12:57:19;5.80;;;1.50;;
25481;SDS011;13395;50.752;4.268;2024-01-15T12:59:44;6.05;;;0.98;;
25481;SDS011;13395;50.752;4.268;2024-01-15T13:02:14;6.90;;;1.40;;
25481;SDS011;13395;50.752;4.268;2024-01-15T13:04:39;2.20;;;0.85;;
25481;SDS011;13395;50.752;4.268;2024-01-15T13:07:05;6.55;;;1.23;;
25481;SDS011;13395;50.752;4.268;2024-01-15T13:09:32;6.03;;;1.02;;
25481;SDS011;13395;50.752;4.268;2024-01-15T13:11:58;5.35;;;1.00;;
25481;SDS011;13395;50.752;4.268;2024-01-15T13:14:24;12.43;;;1.83;;
25481;SDS011;13395;50.752;4.268;2024-01-15T13:16:49;8.35;;;1.38;;
25481;SDS011;13395;50.752;4.268;2024-01-15T13:19:16;5.03;;;1.30;;
25481;SDS011;13395;50.752;4.268;2024-01-15T13:21:42;6.25;;;1.52;;
25481;SDS011;13395;50.752;4.268;2024-01-15T13:24:08;5.32;;;1.17;;
25481;SDS011;13395;50.752;4.268;2024-01-15T13:26:34;6.93;;;1.23;;
25481;SDS011;13395;50.752;4.268;2024-01-15T13:29:00;3.65;;;1.40;;
25481;SDS011;13395;50.752;4.268;2024-01-15T13:31:29;5.40;;;0.88;;
25481;SDS011;13395;50.752;4.268;2024-01-15T13:33:56;8.70;;;1.42;;
25481;SDS011;13395;50.752;4.268;2024-01-15T13:36:22;4.15;;;0.98;;
25481;SDS011;13395;50.752;4.268;2024-01-15T13:38:48;3.78;;;1.20;;
25481;SDS011;13395;50.752;4.268;2024-01-15T13:41:15;5.63;;;1.10;;
25481;SDS011;13395;50.752;4.268;2024-01-15T13:43:43;3.95;;;0.85;;
25481;SDS011;13395;50.752;4.268;2024-01-15T13:46:10;6.53;;;1.40;;
25481;SDS011;13395;50.752;4.268;2024-01-15T13:48:36;6.38;;;1.38;;
25481;SDS011;13395;50.752;4.268;2024-01-15T13:51:01;10.18;;;1.40;;
25481;SDS011;13395;50.752;4.268;2024-01-15T13:53:27;5.53;;;1.50;;
25481;SDS011;13395;50.752;4.268;2024-01-15T13:55:53;4.07;;;1.00;;
25481;SDS011;13395;50.752;4.268;2024-01-15T13:58:19;7.43;;;1.30;;
25481;SDS011;13395;50.752;4.268;2024-01-15T14:00:46;11.18;;;1.85;;
25481;SDS011;13395;50.752;4.268;2024-01-15T14:03:12;10.77;;;1.30;;
25481;SDS011;13395;50.752;4.268;2024-01-15T14:05:38;5.60;;;1.77;;
25481;SDS011;13395;50.752;4.268;2024-01-15T14:08:03;7.75;;;1.58;;
25481;SDS011;13395;50.752;4.268;2024-01-15T14:10:29;8.05;;;1.40;;
25481;SDS011;13395;50.752;4.268;2024-01-15T14:12:55;12.52;;;3.28;;
25481;SDS011;13395;50.752;4.268;2024-01-15T14:15:20;11.07;;;3.75;;
25481;SDS011;13395;50.752;4.268;2024-01-15T14:17:47;11.10;;;3.92;;
25481;SDS011;13395;50.752;4.268;2024-01-15T14:20:12;12.77;;;4.57;;
25481;SDS011;13395;50.752;4.268;2024-01-15T14:22:38;22.73;;;4.57;;
25481;SDS011;13395;50.752;4.268;2024-01-15T14:25:04;16.88;;;3.80;;
25481;SDS011;13395;50.752;4.268;2024-01-15T14:27:29;23.17;;;5.13;;
25481;SDS011;13395;50.752;4.268;2024-01-15T14:29:55;21.95;;;5.28;;
25481;SDS011;13395;50.752;4.268;2024-01-15T14:32:21;10.90;;;4.20;;
25481;SDS011;13395;50.752;4.268;2024-01-15T14:34:46;8.93;;;2.17;;
25481;SDS011;13395;50.752;4.268;2024-01-15T14:37:13;7.40;;;2.20;;
25481;SDS011;13395;50.752;4.268;2024-01-15T14:39:38;11.35;;;2.03;;